createdAt,value
2023-05-08T00:01:21.279Z,32.08
2023-05-08T00:06:23.923Z,28.00
2023-05-08T00:11:27.967Z,32.92
2023-05-08T00:16:31.243Z,30.88
2023-05-08T00:26:37.733Z,32.15
2023-05-08T00:31:40.391Z,31.80
2023-05-08T00:36:43.988Z,32.20
2023-05-08T00:41:47.929Z,34.80
2023-05-08T00:46:51.217Z,31.98
2023-05-08T00:56:59.732Z,31.15
2023-05-08T01:02:03.395Z,33.38
2023-05-08T01:07:06.092Z,31.73
2023-05-08T01:12:18.779Z,30.30
2023-05-08T01:17:39.019Z,29.85
2023-05-08T01:23:31.439Z,34.50
2023-05-08T01:28:57.297Z,31.83
2023-05-08T01:34:07.468Z,28.02
2023-05-08T01:39:18.750Z,27.45
2023-05-08T01:44:25.718Z,25.88
2023-05-08T01:49:39.088Z,25.98
2023-05-08T01:54:45.667Z,28.10
2023-05-08T01:59:50.949Z,28.45
2023-05-08T02:04:55.789Z,28.30
2023-05-08T02:10:00.405Z,28.27
2023-05-08T02:15:04.471Z,25.00
2023-05-08T02:20:14.887Z,27.25
2023-05-08T02:25:19.222Z,24.95
2023-05-08T02:30:25.527Z,26.65
2023-05-08T02:35:32.236Z,28.25
2023-05-08T02:40:35.098Z,28.88
2023-05-08T02:45:42.158Z,25.27
2023-05-08T02:50:51.066Z,28.17
2023-05-08T02:55:58.054Z,25.65
2023-05-08T03:01:06.593Z,32.42
2023-05-08T03:06:14.687Z,28.63
2023-05-08T03:11:21.642Z,33.60
2023-05-08T03:16:26.427Z,30.48
2023-05-08T03:21:33.167Z,29.80
2023-05-08T03:26:36.358Z,28.90
2023-05-08T03:31:39.790Z,28.95
2023-05-08T03:41:47.897Z,28.17
2023-05-08T03:46:51.978Z,26.23
2023-05-08T03:51:57.377Z,27.40
2023-05-08T03:57:00.210Z,26.70
2023-05-08T04:02:13.869Z,28.95
2023-05-08T04:07:24.125Z,24.85
2023-05-08T04:12:35.464Z,23.10
2023-05-08T04:17:43.818Z,24.77
2023-05-08T04:22:49.302Z,24.48
2023-05-08T04:27:52.363Z,21.60
2023-05-08T04:32:55.547Z,20.33
2023-05-08T04:38:00.050Z,21.92
2023-05-08T04:43:03.718Z,20.77
2023-05-08T04:48:07.371Z,19.73
2023-05-08T04:53:11.578Z,20.95
2023-05-08T04:58:14.250Z,20.90
2023-05-08T05:03:16.924Z,16.15
2023-05-08T05:08:21.152Z,16.70
2023-05-08T05:13:23.953Z,18.90
2023-05-08T05:18:26.713Z,17.75
2023-05-08T05:23:30.678Z,17.50
2023-05-08T05:28:33.330Z,17.45
2023-05-08T05:33:36.092Z,16.52
2023-05-08T05:38:40.088Z,14.23
2023-05-08T05:43:42.835Z,15.07
2023-05-08T05:48:46.434Z,15.77
2023-05-08T05:53:50.404Z,14.23
2023-05-08T05:58:53.056Z,15.68
2023-05-08T06:03:55.881Z,13.88
2023-05-08T06:09:00.014Z,13.70
2023-05-08T06:14:02.759Z,13.48
2023-05-08T06:19:05.471Z,11.20
2023-05-08T06:24:09.492Z,14.95
2023-05-08T06:29:12.082Z,13.98
2023-05-08T06:34:14.704Z,13.48
2023-05-08T06:39:18.686Z,13.85
2023-05-08T06:44:21.290Z,12.98
2023-05-08T06:49:23.895Z,16.20
2023-05-08T06:54:27.935Z,13.20
2023-05-08T06:59:30.532Z,14.88
2023-05-08T07:04:33.139Z,14.43
2023-05-08T07:09:37.251Z,13.32
2023-05-08T07:14:39.909Z,13.35
2023-05-08T07:19:44.571Z,13.38
2023-05-08T07:24:48.874Z,13.05
2023-05-08T07:29:51.529Z,14.70
2023-05-08T07:34:54.177Z,14.38
2023-05-08T07:39:58.136Z,13.80
2023-05-08T07:45:01.672Z,14.18
2023-05-08T07:50:05.020Z,14.70
2023-05-08T07:55:10.368Z,14.95
2023-05-08T08:00:16.177Z,14.38
2023-05-08T08:05:18.810Z,15.82
2023-05-08T08:10:22.993Z,15.48
2023-05-08T08:15:25.724Z,15.75
2023-05-08T08:20:28.472Z,14.98
2023-05-08T08:25:33.028Z,13.82
2023-05-08T08:30:35.875Z,16.33
2023-05-08T08:35:38.488Z,14.50
2023-05-08T08:40:43.467Z,16.70
2023-05-08T08:45:46.195Z,15.77
2023-05-08T08:55:57.828Z,15.90
2023-05-08T09:01:04.004Z,16.35
2023-05-08T09:06:07.988Z,14.73
2023-05-08T09:11:11.969Z,16.73
2023-05-08T09:16:14.813Z,15.20
2023-05-08T09:21:17.552Z,16.38
2023-05-08T09:26:32.401Z,15.77
2023-05-08T09:31:36.708Z,14.40
2023-05-08T09:36:41.989Z,22.85
2023-05-08T09:41:58.156Z,17.10
2023-05-08T09:47:14.349Z,16.83
2023-05-08T09:52:17.143Z,17.92
2023-05-08T09:57:21.443Z,16.20
2023-05-08T10:02:24.019Z,17.88
2023-05-08T10:07:31.530Z,19.90
2023-05-08T10:12:37.821Z,22.23
2023-05-08T10:17:45.492Z,19.80
2023-05-08T10:22:49.965Z,18.85
2023-05-08T10:27:59.270Z,20.45
2023-05-08T10:33:04.361Z,19.58
2023-05-08T10:38:10.114Z,20.55
2023-05-08T10:43:15.598Z,20.67
2023-05-08T10:48:27.202Z,20.38
2023-05-08T10:53:37.879Z,26.67
2023-05-08T10:58:41.924Z,20.35
2023-05-08T11:03:51.287Z,20.40
2023-05-08T11:08:54.746Z,19.55
2023-05-08T11:14:12.280Z,21.73
2023-05-08T11:19:20.933Z,22.23
2023-05-08T11:24:35.827Z,22.45
2023-05-08T11:29:40.002Z,22.70
2023-05-08T11:34:49.932Z,22.30
2023-05-08T11:39:52.574Z,22.58
2023-05-08T11:45:05.265Z,20.55
2023-05-08T11:55:13.809Z,23.30
2023-05-08T12:00:18.553Z,30.45
2023-05-08T12:05:28.283Z,25.02
2023-05-08T12:10:31.098Z,23.02
2023-05-08T12:15:35.030Z,27.67
2023-05-08T12:20:37.674Z,26.48
2023-05-08T12:25:40.940Z,22.83
2023-05-08T12:30:44.966Z,23.80
2023-05-08T12:35:48.173Z,28.23
2023-05-08T12:40:52.975Z,25.92
2023-05-08T12:45:56.971Z,20.98
2023-05-08T12:51:04.566Z,15.35
2023-05-08T12:56:07.822Z,20.17
2023-05-08T13:01:14.215Z,18.17
2023-05-08T13:06:23.451Z,19.27
2023-05-08T13:11:30.169Z,18.55
2023-05-08T13:16:44.453Z,19.30
2023-05-08T13:21:47.842Z,24.23
2023-05-08T13:26:50.550Z,25.80
2023-05-08T13:31:54.561Z,22.80
2023-05-08T13:36:57.318Z,25.90
2023-05-08T13:42:00.144Z,25.52
2023-05-08T13:47:04.773Z,24.27
2023-05-08T13:52:07.489Z,23.67
2023-05-08T13:57:10.138Z,20.33
2023-05-08T14:02:14.316Z,19.50
2023-05-08T14:07:18.438Z,22.15
2023-05-08T14:12:21.255Z,15.13
2023-05-08T14:17:25.421Z,16.88
2023-05-08T14:22:28.143Z,18.25
2023-05-08T14:27:30.911Z,18.40
2023-05-08T14:32:34.852Z,19.20
2023-05-08T14:37:37.556Z,19.40
2023-05-08T14:42:41.201Z,22.67
2023-05-08T14:47:45.262Z,25.80
2023-05-08T14:52:47.866Z,23.20
2023-05-08T14:57:51.003Z,25.98
2023-05-08T15:02:54.990Z,29.10
2023-05-08T15:07:57.936Z,29.90
2023-05-08T15:13:00.594Z,29.23
2023-05-08T15:18:04.840Z,29.77
2023-05-08T15:23:07.485Z,31.40
2023-05-08T15:28:10.181Z,27.77
2023-05-08T15:33:14.563Z,19.30
2023-05-08T15:38:17.246Z,15.27
2023-05-08T15:43:19.925Z,16.48
2023-05-08T15:48:24.116Z,13.55
2023-05-08T15:53:26.791Z,10.13
2023-05-08T15:58:29.585Z,13.32
2023-05-08T16:03:34.745Z,13.20
2023-05-08T16:08:37.585Z,13.20
2023-05-08T16:19:17.019Z,15.52
2023-05-08T16:24:20.873Z,15.90
2023-05-08T16:29:23.685Z,14.93
2023-05-08T16:34:28.058Z,16.20
2023-05-08T16:39:31.053Z,15.80
2023-05-08T16:44:33.806Z,15.93
2023-05-08T16:49:38.235Z,19.15
2023-05-08T16:54:40.913Z,24.77
2023-05-08T16:59:43.701Z,18.27
2023-05-08T17:04:48.810Z,17.55
2023-05-08T17:09:57.559Z,19.92
2023-05-08T17:15:00.223Z,17.35
2023-05-08T17:20:07.695Z,19.98
2023-05-08T17:25:15.095Z,20.27
2023-05-08T17:30:22.263Z,19.95
2023-05-08T17:35:27.816Z,20.63
2023-05-08T17:40:31.700Z,19.95
2023-05-08T17:45:36.619Z,21.27
2023-05-08T17:50:42.255Z,21.65
2023-05-08T17:55:55.014Z,22.17
2023-05-08T18:00:57.656Z,23.08
2023-05-08T18:11:04.787Z,25.40
2023-05-08T18:16:09.814Z,22.90
2023-05-08T18:21:14.517Z,22.77
2023-05-08T18:26:18.455Z,24.77
2023-05-08T18:31:21.266Z,24.00
2023-05-08T18:36:28.006Z,21.92
2023-05-08T18:41:30.947Z,20.10
2023-05-08T18:46:35.015Z,24.00
2023-05-08T18:51:39.203Z,20.85
2023-05-08T18:56:42.053Z,22.45
2023-05-08T19:06:48.968Z,23.75
2023-05-08T19:11:51.742Z,23.02
2023-05-08T19:16:56.980Z,22.05
2023-05-08T19:22:04.409Z,21.10
2023-05-08T19:27:07.490Z,20.80
2023-05-08T19:32:10.332Z,27.95
2023-05-08T19:37:14.415Z,31.42
2023-05-08T19:42:17.213Z,37.72
2023-05-08T19:47:20.997Z,39.45
2023-05-08T19:52:25.178Z,43.78
2023-05-08T19:57:28.988Z,45.53
2023-05-08T20:02:31.962Z,48.42
2023-05-08T20:07:37.123Z,43.78
2023-05-08T20:12:39.964Z,43.92
2023-05-08T20:22:48.974Z,43.30
2023-05-08T20:27:53.174Z,38.95
2023-05-08T20:32:56.400Z,42.83
2023-05-08T20:38:00.586Z,40.60
2023-05-08T20:43:03.362Z,47.65
2023-05-08T20:48:06.803Z,43.35
2023-05-08T20:53:10.904Z,43.30
2023-05-08T20:58:15.871Z,40.45
2023-05-08T21:03:21.534Z,37.35
2023-05-08T21:08:27.685Z,39.38
2023-05-08T21:13:30.459Z,40.78
2023-05-08T21:18:35.468Z,43.13
2023-05-08T21:23:41.613Z,48.60
2023-05-08T21:28:44.280Z,45.97
2023-05-08T21:33:46.937Z,46.35
2023-05-08T21:38:52.060Z,45.15
2023-05-08T21:43:54.627Z,48.30
2023-05-08T21:48:57.229Z,48.03
2023-05-08T21:54:01.789Z,53.90
2023-05-08T21:59:04.403Z,49.17
2023-05-08T22:04:07.001Z,49.92
2023-05-08T22:09:11.114Z,55.58
2023-05-08T22:14:13.755Z,55.03
2023-05-08T22:19:16.476Z,52.55
2023-05-08T22:24:20.427Z,51.75
2023-05-08T22:29:23.045Z,56.20
2023-05-08T22:34:25.663Z,49.90
2023-05-08T22:39:29.593Z,54.25
2023-05-08T22:44:32.225Z,58.20
2023-05-08T22:49:35.126Z,54.10
2023-05-08T22:54:39.138Z,55.30
2023-05-08T22:59:41.781Z,57.83
2023-05-08T23:04:44.377Z,57.30
2023-05-08T23:09:48.307Z,57.17
2023-05-08T23:14:50.904Z,54.92
2023-05-08T23:19:53.514Z,64.30
2023-05-08T23:24:57.418Z,62.58
2023-05-08T23:30:00.047Z,68.57
2023-05-08T23:35:02.696Z,61.50
2023-05-08T23:40:08.059Z,62.55
2023-05-08T23:45:12.222Z,65.75
2023-05-08T23:50:15.204Z,73.68
2023-05-08T23:55:20.236Z,68.03
